Time;durP1;ratioP1;P1;durP2;ratioP2;P2;SDS_P1;SDS_P2;PMS_P1;PMS_P2;Temp;Humidity;BMP_temperature;BMP_pressure;BME280_temperature;BME280_humidity;BME280_pressure;Samples;Min_cycle;Max_cycle;Signal;HPM_P1;HPM_P2
2023/12/02 00:00:02;;;;;;;48.7;27.4;;;;;;;-0.97;89.44;;;;;
2023/12/02 00:11:02;;;;;;;45.3;22.9;;;;;;;-1.09;89.59;;;;;
2023/12/02 00:22:04;;;;;;;45.3;22.9;;;;;;;-1.03;89.21;;;;;
2023/12/02 00:33:02;;;;;;;45.3;22.9;;;;;;;-1.07;89.07;;;;;
2023/12/02 00:44:02;;;;;;;31.4;18.2;;;;;;;-1.07;89;;;;;
2023/12/02 00:55:02;;;;;;;31.4;18.2;;;;;;;-1.37;90.07;;;;;
2023/12/02 01:06:02;;;;;;;31.4;18.2;;;;;;;-1.24;90.04;;;;;
2023/12/02 01:17:02;;;;;;;31.5;16.7;;;;;;;-1.08;89.96;;;;;
2023/12/02 01:27:02;;;;;;;31.5;16.7;;;;;;;-1.12;89.55;;;;;
2023/12/02 01:37:02;;;;;;;31.5;16.7;;;;;;;-1.09;89.22;;;;;
2023/12/02 01:48:02;;;;;;;31;16.6;;;;;;;-1.33;89.61;;;;;
2023/12/02 01:58:02;;;;;;;31;16.6;;;;;;;-1.12;89.28;;;;;
2023/12/02 02:09:02;;;;;;;21.3;13.2;;;;;;;-1.15;88.73;;;;;
2023/12/02 02:19:02;;;;;;;21.3;13.2;;;;;;;-1.25;89.31;;;;;
2023/12/02 02:29:02;;;;;;;21.3;13.2;;;;;;;-1.14;88.88;;;;;
2023/12/02 02:39:02;;;;;;;19.6;12.3;;;;;;;-1.19;88.95;;;;;
2023/12/02 02:50:02;;;;;;;19.6;12.3;;;;;;;-1.17;89.04;;;;;
2023/12/02 03:00:04;;;;;;;19.6;12.3;;;;;;;-1.11;88.75;;;;;
2023/12/02 03:11:02;;;;;;;21.1;12.2;;;;;;;-1.11;88.68;;;;;
2023/12/02 03:22:02;;;;;;;21.1;12.2;;;;;;;-1.2;88.58;;;;;
2023/12/02 03:33:02;;;;;;;21.1;12.2;;;;;;;-1.19;88.42;;;;;
2023/12/02 03:43:02;;;;;;;22.3;12.4;;;;;;;-1.23;88.34;;;;;
2023/12/02 03:53:02;;;;;;;22.3;12.4;;;;;;;-1.36;88.53;;;;;
2023/12/02 04:04:02;;;;;;;22.3;12.4;;;;;;;-1.29;88.51;;;;;
2023/12/02 04:15:02;;;;;;;24.1;11.6;;;;;;;-1.31;88.7;;;;;
2023/12/02 04:26:02;;;;;;;24.1;11.6;;;;;;;-1.4;88.92;;;;;
2023/12/02 04:37:02;;;;;;;24.1;11.6;;;;;;;-1.4;88.79;;;;;
2023/12/02 04:47:02;;;;;;;20.3;10.9;;;;;;;-1.61;89.1;;;;;
2023/12/02 04:58:02;;;;;;;20.3;10.9;;;;;;;-1.66;89.41;;;;;
2023/12/02 05:08:02;;;;;;;16.4;10;;;;;;;-1.68;89.68;;;;;
2023/12/02 05:18:02;;;;;;;16.4;10;;;;;;;-1.66;89.59;;;;;
2023/12/02 05:28:02;;;;;;;16.4;10;;;;;;;-1.74;89.49;;;;;
2023/12/02 05:38:02;;;;;;;12.8;6.7;;;;;;;-1.74;89.48;;;;;
2023/12/02 05:48:02;;;;;;;12.8;6.7;;;;;;;-1.66;89.12;;;;;
2023/12/02 05:59:02;;;;;;;12.8;6.7;;;;;;;-1.82;89.62;;;;;
2023/12/02 06:09:02;;;;;;;9.9;5.3;;;;;;;-1.84;89.63;;;;;
2023/12/02 06:20:02;;;;;;;9.9;5.3;;;;;;;-1.68;89.2;;;;;
2023/12/02 06:31:02;;;;;;;9.9;5.3;;;;;;;-2.11;89.34;;;;;
2023/12/02 06:42:02;;;;;;;7.7;3.7;;;;;;;-2.07;89.69;;;;;
2023/12/02 06:53:02;;;;;;;7.7;3.7;;;;;;;-2.1;89.7;;;;;
2023/12/02 07:03:02;;;;;;;7.7;3.7;;;;;;;-2.08;89.46;;;;;
2023/12/02 07:14:02;;;;;;;8.3;4.5;;;;;;;-1.95;89.93;;;;;
2023/12/02 07:25:02;;;;;;;8.3;4.5;;;;;;;-2.04;89.26;;;;;
2023/12/02 07:36:02;;;;;;;8.3;4.5;;;;;;;-1.83;89.07;;;;;
2023/12/02 07:46:02;;;;;;;10;5.6;;;;;;;-1.63;88.55;;;;;
2023/12/02 07:57:02;;;;;;;10;5.6;;;;;;;-1.57;87.8;;;;;
2023/12/02 08:08:02;;;;;;;10.9;5.8;;;;;;;-1.48;87.64;;;;;
2023/12/02 08:18:03;;;;;;;10.9;5.8;;;;;;;-1.29;87.24;;;;;
2023/12/02 08:29:02;;;;;;;10.9;5.8;;;;;;;-1.4;86.94;;;;;
2023/12/02 08:40:05;;;;;;;17.6;9.4;;;;;;;-1.57;87.42;;;;;
2023/12/02 08:50:03;;;;;;;17.6;9.4;;;;;;;-1.4;87.68;;;;;
2023/12/02 09:00:04;;;;;;;17.6;9.4;;;;;;;-1.53;88.02;;;;;
2023/12/02 09:11:02;;;;;;;16.2;9.3;;;;;;;-1.1;87.11;;;;;
2023/12/02 09:21:02;;;;;;;16.2;9.3;;;;;;;-1.03;86.15;;;;;
2023/12/02 09:31:03;;;;;;;16.2;9.3;;;;;;;-0.96;85.7;;;;;
2023/12/02 09:42:02;;;;;;;23.5;12;;;;;;;-1.04;85.57;;;;;
2023/12/02 09:52:02;;;;;;;23.5;12;;;;;;;-0.94;85.65;;;;;
2023/12/02 10:02:02;;;;;;;23.5;12;;;;;;;-1.04;85.83;;;;;
2023/12/02 10:13:02;;;;;;;17.9;9.7;;;;;;;-1.02;86.51;;;;;
2023/12/02 10:24:02;;;;;;;17.9;9.7;;;;;;;-0.66;86.21;;;;;
2023/12/02 10:35:02;;;;;;;17.9;9.7;;;;;;;-0.61;85.29;;;;;
2023/12/02 10:45:02;;;;;;;18.3;9.7;;;;;;;-0.68;85.76;;;;;
2023/12/02 10:55:02;;;;;;;18.3;9.7;;;;;;;-0.6;85.16;;;;;
2023/12/02 11:06:02;;;;;;;18.3;9.7;;;;;;;-0.7;85.41;;;;;
2023/12/02 11:16:02;;;;;;;19.5;9;;;;;;;-0.92;85.82;;;;;
2023/12/02 11:26:02;;;;;;;19.5;9;;;;;;;-0.79;86.16;;;;;
2023/12/02 11:36:02;;;;;;;15.4;8;;;;;;;-0.95;85.82;;;;;
2023/12/02 11:47:02;;;;;;;15.4;8;;;;;;;-0.86;86.03;;;;;
2023/12/02 11:57:03;;;;;;;15.4;8;;;;;;;-0.59;85.53;;;;;
2023/12/02 12:08:02;;;;;;;15.7;10;;;;;;;-0.62;86.17;;;;;
2023/12/02 12:19:03;;;;;;;15.7;10;;;;;;;-0.56;85.64;;;;;
2023/12/02 12:29:02;;;;;;;15.7;10;;;;;;;-0.81;85.81;;;;;
2023/12/02 12:39:03;;;;;;;17.9;9.5;;;;;;;-0.82;86.06;;;;;
2023/12/02 12:50:02;;;;;;;17.9;9.5;;;;;;;-1.04;86.88;;;;;
2023/12/02 13:01:03;;;;;;;17.9;9.5;;;;;;;-1.08;87.28;;;;;
2023/12/02 13:12:02;;;;;;;15.7;7.7;;;;;;;-0.78;87.27;;;;;
2023/12/02 13:22:02;;;;;;;15.7;7.7;;;;;;;-0.96;87.66;;;;;
2023/12/02 13:32:02;;;;;;;15.7;7.7;;;;;;;-0.96;87.9;;;;;
2023/12/02 13:43:03;;;;;;;19.8;9.8;;;;;;;-0.9;87.71;;;;;
2023/12/02 13:53:02;;;;;;;19.8;9.8;;;;;;;-0.8;87.55;;;;;
2023/12/02 14:04:02;;;;;;;19.8;9.8;;;;;;;-0.84;87.43;;;;;
2023/12/02 14:15:03;;;;;;;47.7;27.7;;;;;;;-0.78;87.53;;;;;
2023/12/02 14:26:02;;;;;;;47.7;27.7;;;;;;;-0.58;87.3;;;;;
2023/12/02 14:37:02;;;;;;;18.6;11.9;;;;;;;-1.04;88.24;;;;;
2023/12/02 14:47:02;;;;;;;18.6;11.9;;;;;;;-0.99;88.45;;;;;
2023/12/02 14:57:02;;;;;;;18.6;11.9;;;;;;;-1.3;89.13;;;;;
2023/12/02 15:08:02;;;;;;;20.7;12;;;;;;;-1.35;89.24;;;;;
2023/12/02 15:18:02;;;;;;;20.7;12;;;;;;;-1.3;88.78;;;;;
2023/12/02 15:28:02;;;;;;;20.7;12;;;;;;;-1.26;88.22;;;;;
2023/12/02 15:38:02;;;;;;;26.7;15.5;;;;;;;-1.28;88.16;;;;;
2023/12/02 15:49:02;;;;;;;26.7;15.5;;;;;;;-1.21;88.24;;;;;
2023/12/02 16:00:03;;;;;;;26.7;15.5;;;;;;;-1.06;87.85;;;;;
2023/12/02 16:11:02;;;;;;;16;10.8;;;;;;;-1.05;87.79;;;;;
2023/12/02 16:22:02;;;;;;;16;10.8;;;;;;;-1.1;87.43;;;;;
2023/12/02 16:33:03;;;;;;;16;10.8;;;;;;;-1.14;87.82;;;;;
2023/12/02 16:44:02;;;;;;;27.3;15.3;;;;;;;-1.07;87.45;;;;;
2023/12/02 16:55:02;;;;;;;27.3;15.3;;;;;;;-1.37;87.6;;;;;
2023/12/02 17:05:02;;;;;;;26.8;15.8;;;;;;;-1.37;87.89;;;;;
2023/12/02 17:15:02;;;;;;;26.8;15.8;;;;;;;-1.23;87.5;;;;;
2023/12/02 17:26:02;;;;;;;26.8;15.8;;;;;;;-1.19;87.07;;;;;
2023/12/02 17:36:02;;;;;;;23.8;12.2;;;;;;;-1.31;87.33;;;;;
2023/12/02 17:47:02;;;;;;;23.8;12.2;;;;;;;-1.4;87.65;;;;;
2023/12/02 17:57:02;;;;;;;23.8;12.2;;;;;;;-1.38;87.79;;;;;
2023/12/02 18:08:02;;;;;;;17.5;9.9;;;;;;;-1.34;88.02;;;;;
2023/12/02 18:18:02;;;;;;;17.5;9.9;;;;;;;-1.28;87.98;;;;;
2023/12/02 18:28:02;;;;;;;17.5;9.9;;;;;;;-1.28;87.98;;;;;
2023/12/02 18:38:02;;;;;;;19.1;11.1;;;;;;;-1.33;88.08;;;;;
2023/12/02 18:49:03;;;;;;;19.1;11.1;;;;;;;-1.42;88.5;;;;;
2023/12/02 18:59:02;;;;;;;19.1;11.1;;;;;;;-1.43;88.8;;;;;
2023/12/02 19:09:03;;;;;;;18.8;11.8;;;;;;;-1.42;88.89;;;;;
2023/12/02 19:20:03;;;;;;;18.8;11.8;;;;;;;-1.4;88.92;;;;;
2023/12/02 19:30:02;;;;;;;18.8;11.8;;;;;;;-1.36;88.92;;;;;
2023/12/02 19:41:02;;;;;;;23.3;13.1;;;;;;;-1.4;89.1;;;;;
2023/12/02 19:52:02;;;;;;;23.3;13.1;;;;;;;-1.4;89.31;;;;;
2023/12/02 20:02:03;;;;;;;23.3;13.1;;;;;;;-1.42;89.29;;;;;
2023/12/02 20:12:02;;;;;;;19.3;11.3;;;;;;;-1.56;88.87;;;;;
2023/12/02 20:23:02;;;;;;;19.3;11.3;;;;;;;-1.67;88.6;;;;;
2023/12/02 20:33:02;;;;;;;19.3;11.3;;;;;;;-1.61;88.61;;;;;
2023/12/02 20:44:02;;;;;;;25.7;13.9;;;;;;;-1.76;88.65;;;;;
2023/12/02 20:54:02;;;;;;;25.7;13.9;;;;;;;-1.78;88.99;;;;;
2023/12/02 21:05:02;;;;;;;24.6;14.2;;;;;;;-1.79;89.02;;;;;
2023/12/02 21:15:03;;;;;;;24.6;14.2;;;;;;;-1.65;89.11;;;;;
2023/12/02 21:25:03;;;;;;;24.6;14.2;;;;;;;-1.69;89.15;;;;;
2023/12/02 21:35:05;;;;;;;26.6;14.1;;;;;;;-1.62;88.93;;;;;
2023/12/02 21:46:04;;;;;;;26.6;14.1;;;;;;;-1.72;89.06;;;;;
2023/12/02 21:57:02;;;;;;;26.6;14.1;;;;;;;-1.69;89.12;;;;;
2023/12/02 22:07:02;;;;;;;33.8;16.9;;;;;;;-1.72;88.93;;;;;
2023/12/02 22:18:02;;;;;;;33.8;16.9;;;;;;;-1.83;88.79;;;;;
2023/12/02 22:29:02;;;;;;;33.8;16.9;;;;;;;-1.8;88.62;;;;;
2023/12/02 22:39:02;;;;;;;31;14.9;;;;;;;-1.69;88.52;;;;;
2023/12/02 22:49:03;;;;;;;31;14.9;;;;;;;-1.7;88.65;;;;;
2023/12/02 23:00:06;;;;;;;31;14.9;;;;;;;-1.76;88.46;;;;;
2023/12/02 23:11:03;;;;;;;27.9;14.5;;;;;;;-1.87;89.8;;;;;
2023/12/02 23:22:02;;;;;;;27.9;14.5;;;;;;;-1.86;89.71;;;;;
2023/12/02 23:33:02;;;;;;;27.9;14.5;;;;;;;-1.91;89.43;;;;;
2023/12/02 23:43:02;;;;;;;24.1;13;;;;;;;-1.93;89.13;;;;;
2023/12/02 23:54:02;;;;;;;24.1;13;;;;;;;-2.1;89.1;;;;;
